createdAt,value
2018-10-11T00:02:08.449Z,66.95
2018-10-11T00:04:37.395Z,67.33
2018-10-11T00:07:06.438Z,66.56
2018-10-11T00:09:35.396Z,67.20
2018-10-11T00:12:04.319Z,67.38
2018-10-11T00:14:33.236Z,67.84
2018-10-11T00:17:02.132Z,67.62
2018-10-11T00:19:31.060Z,67.63
2018-10-11T00:21:59.989Z,67.78
2018-10-11T00:24:28.939Z,67.87
2018-10-11T00:26:57.845Z,67.40
2018-10-11T00:29:26.784Z,68.23
2018-10-11T00:31:55.699Z,68.22
2018-10-11T00:34:24.636Z,68.16
2018-10-11T00:36:54.017Z,68.39
2018-10-11T00:39:22.954Z,68.65
2018-10-11T00:41:51.859Z,68.87
2018-10-11T00:44:21.728Z,68.74
2018-10-11T00:46:50.619Z,68.86
2018-10-11T00:49:19.597Z,68.71
2018-10-11T00:51:48.501Z,68.42
2018-10-11T00:54:17.470Z,68.96
2018-10-11T00:56:46.371Z,69.12
2018-10-11T00:59:15.299Z,68.89
2018-10-11T01:01:44.226Z,69.50
2018-10-11T01:04:13.153Z,69.00
2018-10-11T01:06:42.779Z,69.79
2018-10-11T01:09:12.608Z,69.76
2018-10-11T01:11:42.039Z,70.05
2018-10-11T01:14:11.430Z,70.06
2018-10-11T01:16:40.702Z,70.32
2018-10-11T01:19:10.081Z,70.44
2018-10-11T01:21:39.205Z,70.35
2018-10-11T01:24:08.466Z,70.20
2018-10-11T01:26:37.391Z,70.31
2018-10-11T01:29:06.380Z,70.23
2018-10-11T01:31:35.318Z,69.92
2018-10-11T01:34:04.260Z,69.85
2018-10-11T01:36:33.165Z,69.80
2018-10-11T01:39:02.120Z,68.84
2018-10-11T01:41:31.019Z,68.54
2018-10-11T01:44:00.179Z,69.27
2018-10-11T01:46:29.097Z,69.19
2018-10-11T01:48:58.141Z,69.11
2018-10-11T01:51:27.062Z,69.24
2018-10-11T01:53:56.008Z,69.16
2018-10-11T01:56:24.916Z,69.38
2018-10-11T01:58:53.808Z,69.34
2018-10-11T02:01:22.749Z,68.55
2018-10-11T02:03:51.643Z,69.28
2018-10-11T02:06:20.585Z,69.67
2018-10-11T02:08:49.504Z,69.49
2018-10-11T02:11:18.418Z,69.54
2018-10-11T02:13:47.354Z,69.65
2018-10-11T02:16:16.255Z,69.63
2018-10-11T02:18:45.220Z,69.77
2018-10-11T02:21:14.113Z,69.99
2018-10-11T02:23:43.062Z,69.82
2018-10-11T02:26:11.956Z,70.18
2018-10-11T02:28:40.895Z,70.19
2018-10-11T02:31:09.840Z,70.41
2018-10-11T02:33:38.755Z,69.99
2018-10-11T02:36:07.715Z,70.76
2018-10-11T02:38:36.656Z,70.76
2018-10-11T02:41:05.600Z,70.74
2018-10-11T02:43:34.521Z,69.92
2018-10-11T02:46:03.473Z,70.30
2018-10-11T02:48:32.375Z,70.54
2018-10-11T02:51:01.298Z,70.68
2018-10-11T02:53:30.219Z,70.72
2018-10-11T02:55:59.154Z,70.96
2018-10-11T02:59:04.331Z,70.02
2018-10-11T03:01:33.308Z,70.72
2018-10-11T03:04:04.488Z,70.87
2018-10-11T03:06:37.472Z,71.09
2018-10-11T03:09:07.376Z,70.35
2018-10-11T03:11:36.316Z,69.73
2018-10-11T03:14:05.218Z,70.64
2018-10-11T03:16:34.157Z,70.57
2018-10-11T03:19:03.079Z,71.03
2018-10-11T03:21:31.986Z,71.46
2018-10-11T03:24:00.915Z,71.37
2018-10-11T03:26:29.838Z,71.51
2018-10-11T03:28:58.741Z,71.67
2018-10-11T03:31:27.648Z,71.62
2018-10-11T03:33:56.553Z,71.88
2018-10-11T03:36:25.516Z,72.19
2018-10-11T03:38:54.395Z,71.74
2018-10-11T03:41:23.324Z,71.89
2018-10-11T03:43:52.230Z,72.13
2018-10-11T03:46:21.246Z,71.79
2018-10-11T03:48:50.100Z,72.10
2018-10-11T03:51:18.990Z,72.22
2018-10-11T03:53:47.989Z,72.13
2018-10-11T03:56:16.873Z,72.69
2018-10-11T03:58:45.793Z,72.34
2018-10-11T04:01:14.713Z,72.68
2018-10-11T04:03:43.692Z,72.47
2018-10-11T04:06:12.596Z,71.86
2018-10-11T04:08:41.501Z,72.37
2018-10-11T04:11:10.485Z,72.19
2018-10-11T04:13:39.393Z,72.28
2018-10-11T04:16:08.321Z,72.29
2018-10-11T04:18:37.242Z,72.37
2018-10-11T04:21:06.455Z,72.18
2018-10-11T04:23:35.381Z,72.33
2018-10-11T04:26:04.271Z,71.63
2018-10-11T04:28:33.173Z,72.03
2018-10-11T04:31:02.093Z,72.19
2018-10-11T04:33:31.017Z,72.00
2018-10-11T04:36:00.011Z,72.01
2018-10-11T04:38:28.881Z,72.00
2018-10-11T04:40:57.796Z,71.93
2018-10-11T04:43:26.725Z,71.99
2018-10-11T04:45:55.676Z,72.03
2018-10-11T04:48:24.609Z,72.25
2018-10-11T04:50:53.540Z,72.08
2018-10-11T04:53:22.460Z,72.09
2018-10-11T04:55:51.344Z,72.29
2018-10-11T04:58:20.245Z,72.31
2018-10-11T05:00:49.214Z,72.69
2018-10-11T05:03:18.133Z,72.46
2018-10-11T05:05:47.053Z,72.56
2018-10-11T05:08:15.996Z,72.58
2018-10-11T05:10:45.402Z,72.44
2018-10-11T05:13:14.613Z,72.48
2018-10-11T05:15:44.260Z,72.46
2018-10-11T05:18:16.813Z,72.38
2018-10-11T05:20:45.872Z,72.49
2018-10-11T05:23:14.771Z,72.55
2018-10-11T05:25:43.697Z,71.69
2018-10-11T05:28:12.603Z,72.65
2018-10-11T05:30:43.875Z,72.41
2018-10-11T05:33:13.325Z,72.52
2018-10-11T05:35:42.273Z,72.45
2018-10-11T05:38:11.207Z,72.48
2018-10-11T05:40:40.667Z,72.43
2018-10-11T05:43:09.885Z,72.89
2018-10-11T05:45:39.216Z,73.01
2018-10-11T05:48:08.233Z,72.94
2018-10-11T05:50:37.175Z,73.09
2018-10-11T05:53:06.446Z,73.06
2018-10-11T05:55:35.326Z,73.03
2018-10-11T05:58:04.253Z,72.81
2018-10-11T06:00:33.197Z,72.75
2018-10-11T06:03:03.354Z,72.12
2018-10-11T06:05:32.408Z,72.79
2018-10-11T06:08:02.403Z,71.99
2018-10-11T06:10:36.629Z,73.08
2018-10-11T06:13:06.742Z,72.99
2018-10-11T06:15:35.627Z,72.98
2018-10-11T06:18:04.660Z,72.90
2018-10-11T06:20:33.567Z,72.81
2018-10-11T06:23:02.508Z,72.95
2018-10-11T06:25:31.446Z,72.99
2018-10-11T06:28:00.393Z,72.86
2018-10-11T06:30:30.401Z,72.65
2018-10-11T06:32:59.333Z,73.09
2018-10-11T06:35:28.706Z,72.80
2018-10-11T06:37:57.998Z,72.56
2018-10-11T06:40:27.072Z,72.23
2018-10-11T06:42:56.015Z,71.95
2018-10-11T06:45:25.346Z,71.89
2018-10-11T06:48:05.189Z,71.73
2018-10-11T06:50:34.132Z,71.82
2018-10-11T06:53:03.057Z,71.89
2018-10-11T06:55:31.949Z,71.84
2018-10-11T06:58:01.545Z,71.70
2018-10-11T07:00:30.497Z,71.39
2018-10-11T07:02:59.421Z,71.42
2018-10-11T07:05:28.336Z,71.45
2018-10-11T07:07:57.283Z,71.28
2018-10-11T07:10:26.225Z,71.02
2018-10-11T07:12:55.150Z,70.87
2018-10-11T07:15:24.075Z,70.37
2018-10-11T07:17:53.283Z,70.25
2018-10-11T07:20:22.203Z,70.00
2018-10-11T07:22:51.164Z,69.65
2018-10-11T07:25:20.076Z,69.51
2018-10-11T07:27:48.962Z,69.29
2018-10-11T07:30:17.892Z,68.85
2018-10-11T07:32:46.793Z,67.07
2018-10-11T07:35:15.885Z,67.26
2018-10-11T07:37:44.653Z,67.17
2018-10-11T07:40:13.593Z,67.01
2018-10-11T07:42:42.493Z,66.19
2018-10-11T07:45:11.438Z,66.64
2018-10-11T07:47:40.321Z,66.70
2018-10-11T07:50:09.281Z,66.41
2018-10-11T07:52:38.190Z,65.07
2018-10-11T07:55:07.253Z,65.80
2018-10-11T07:57:36.130Z,65.59
2018-10-11T08:00:05.530Z,65.44
2018-10-11T08:02:34.449Z,65.40
2018-10-11T08:05:03.398Z,65.19
2018-10-11T08:07:32.416Z,64.49
2018-10-11T08:10:01.257Z,63.87
2018-10-11T08:12:30.155Z,63.42
2018-10-11T08:14:59.102Z,63.26
2018-10-11T08:17:28.479Z,62.75
2018-10-11T08:19:57.050Z,62.54
2018-10-11T08:22:25.872Z,62.36
2018-10-11T08:24:55.001Z,61.79
2018-10-11T08:27:23.865Z,61.49
2018-10-11T08:29:52.742Z,60.91
2018-10-11T08:32:21.833Z,61.19
2018-10-11T08:34:50.581Z,60.40
2018-10-11T08:37:19.533Z,60.11
2018-10-11T08:39:48.436Z,59.07
2018-10-11T08:42:17.401Z,58.64
2018-10-11T08:44:46.284Z,56.87
2018-10-11T08:47:15.199Z,55.45
2018-10-11T08:49:44.096Z,55.61
2018-10-11T08:52:13.259Z,55.77
2018-10-11T08:54:47.956Z,56.01
2018-10-11T08:57:17.565Z,55.62
2018-10-11T08:59:46.707Z,54.81
2018-10-11T09:02:15.829Z,52.96
2018-10-11T09:04:45.263Z,51.10
2018-10-11T09:07:14.202Z,51.42
2018-10-11T09:09:43.811Z,50.30
2018-10-11T09:12:12.722Z,51.20
2018-10-11T09:14:41.619Z,51.36
2018-10-11T09:17:10.547Z,48.89
2018-10-11T09:19:39.452Z,49.24
2018-10-11T09:22:08.590Z,48.16
2018-10-11T09:24:37.493Z,49.34
2018-10-11T09:27:06.538Z,49.97
2018-10-11T09:29:35.454Z,50.26
2018-10-11T09:32:04.421Z,49.76
2018-10-11T09:34:33.309Z,49.64
2018-10-11T09:37:02.218Z,49.30
2018-10-11T09:39:31.134Z,50.13
2018-10-11T09:42:00.084Z,50.63
2018-10-11T09:44:29.010Z,49.14
2018-10-11T09:46:57.940Z,48.19
2018-10-11T09:49:26.996Z,48.39
2018-10-11T09:51:55.892Z,48.69
2018-10-11T09:54:24.846Z,49.16
2018-10-11T09:57:24.024Z,49.76
2018-10-11T09:59:52.945Z,46.22
2018-10-11T10:02:22.631Z,43.07
2018-10-11T10:04:55.724Z,39.28
2018-10-11T10:07:24.649Z,38.30
2018-10-11T10:09:53.840Z,37.09
2018-10-11T10:12:23.059Z,35.82
2018-10-11T10:14:52.492Z,33.66
2018-10-11T10:17:21.583Z,32.85
2018-10-11T10:19:50.517Z,34.65
2018-10-11T10:22:19.433Z,33.39
2018-10-11T10:24:48.386Z,32.85
2018-10-11T10:27:17.492Z,32.27
2018-10-11T10:29:46.301Z,30.24
2018-10-11T10:32:15.264Z,30.64
2018-10-11T10:34:44.154Z,29.75
2018-10-11T10:37:13.065Z,28.84
2018-10-11T10:39:42.004Z,29.23
2018-10-11T10:42:10.878Z,30.86
2018-10-11T10:44:39.778Z,33.17
2018-10-11T10:47:08.971Z,34.59
2018-10-11T10:49:37.896Z,38.56
2018-10-11T10:52:06.948Z,40.03
2018-10-11T10:54:36.517Z,38.30
2018-10-11T10:57:06.151Z,39.58
2018-10-11T10:59:35.099Z,41.48
2018-10-11T11:02:04.000Z,42.65
2018-10-11T11:04:32.908Z,43.15
2018-10-11T11:07:01.818Z,43.53
2018-10-11T11:09:30.726Z,43.28
2018-10-11T11:11:59.615Z,43.56
2018-10-11T11:14:28.802Z,43.77
2018-10-11T11:16:57.744Z,44.07
2018-10-11T11:19:26.665Z,43.74
2018-10-11T11:21:55.582Z,44.79
2018-10-11T11:24:24.480Z,44.58
2018-10-11T11:26:53.389Z,45.17
2018-10-11T11:29:22.276Z,44.93
2018-10-11T11:31:51.213Z,45.44
2018-10-11T11:34:20.101Z,45.93
2018-10-11T11:36:49.039Z,45.89
2018-10-11T11:39:17.949Z,46.35
2018-10-11T11:41:46.879Z,46.58
2018-10-11T11:44:15.792Z,46.62
2018-10-11T11:46:44.676Z,46.76
2018-10-11T11:49:13.587Z,46.96
2018-10-11T11:51:42.496Z,47.49
2018-10-11T11:54:21.620Z,47.16
2018-10-11T11:56:51.530Z,47.84
2018-10-11T11:59:20.389Z,48.52
2018-10-11T12:01:49.370Z,47.63
2018-10-11T12:04:18.272Z,47.49
2018-10-11T12:06:47.215Z,47.48
2018-10-11T12:09:16.142Z,47.75
2018-10-11T12:11:45.014Z,47.84
2018-10-11T12:14:13.924Z,47.24
2018-10-11T12:16:42.921Z,47.90
2018-10-11T12:19:12.197Z,47.78
2018-10-11T12:21:41.137Z,48.23
2018-10-11T12:24:10.324Z,47.96
2018-10-11T12:26:39.209Z,48.63
2018-10-11T12:29:08.581Z,48.42
2018-10-11T12:31:37.220Z,48.62
2018-10-11T12:34:06.218Z,49.11
2018-10-11T12:36:35.086Z,49.25
2018-10-11T12:39:04.737Z,48.68
2018-10-11T12:41:33.647Z,48.25
2018-10-11T12:44:02.593Z,48.21
2018-10-11T12:46:32.521Z,47.14
2018-10-11T12:49:00.451Z,45.28
2018-10-11T12:51:29.380Z,45.28
2018-10-11T12:53:58.389Z,43.56
2018-10-11T12:56:27.288Z,43.16
2018-10-11T12:58:56.165Z,42.74
2018-10-11T13:01:25.114Z,42.49
2018-10-11T13:03:54.015Z,42.71
2018-10-11T13:06:22.915Z,42.76
2018-10-11T13:08:51.821Z,42.43
2018-10-11T13:11:20.701Z,42.00
2018-10-11T13:13:52.020Z,41.48
2018-10-11T13:16:18.531Z,42.19
2018-10-11T13:18:47.442Z,41.17
2018-10-11T13:21:16.329Z,42.28
2018-10-11T13:23:45.268Z,41.80
2018-10-11T13:26:14.169Z,42.25
2018-10-11T13:28:43.128Z,41.66
2018-10-11T13:31:11.992Z,42.15
2018-10-11T13:33:40.899Z,41.52
2018-10-11T13:36:09.918Z,40.98
2018-10-11T13:38:38.876Z,41.24
2018-10-11T13:41:07.990Z,41.55
2018-10-11T13:43:36.772Z,42.07
2018-10-11T13:46:05.860Z,41.21
2018-10-11T13:48:34.729Z,41.39
2018-10-11T13:51:03.630Z,41.58
2018-10-11T13:53:32.573Z,41.31
2018-10-11T13:56:01.501Z,40.74
2018-10-11T13:58:30.396Z,40.97
2018-10-11T14:00:59.305Z,41.14
2018-10-11T14:03:28.241Z,39.71
2018-10-11T14:05:57.142Z,40.53
2018-10-11T14:08:26.069Z,40.40
2018-10-11T14:10:54.961Z,41.04
2018-10-11T14:13:24.185Z,41.33
2018-10-11T14:15:53.069Z,41.77
2018-10-11T14:18:22.010Z,41.69
2018-10-11T14:20:50.899Z,41.78
2018-10-11T14:23:19.858Z,41.85
2018-10-11T14:25:48.780Z,42.40
2018-10-11T14:28:17.730Z,43.28
2018-10-11T14:30:46.659Z,43.22
2018-10-11T14:33:15.601Z,44.14
2018-10-11T14:35:44.483Z,44.33
2018-10-11T14:38:13.446Z,44.86
2018-10-11T14:40:42.322Z,45.25
2018-10-11T14:43:11.213Z,45.29
2018-10-11T14:45:40.131Z,45.68
2018-10-11T14:48:09.258Z,45.92
2018-10-11T14:50:38.168Z,46.50
2018-10-11T14:53:07.173Z,46.22
2018-10-11T14:55:36.114Z,46.04
2018-10-11T14:58:05.296Z,46.45
2018-10-11T15:00:34.240Z,46.09
2018-10-11T15:03:03.254Z,46.40
2018-10-11T15:05:32.208Z,46.32
2018-10-11T15:08:01.089Z,46.33
2018-10-11T15:10:29.986Z,46.34
2018-10-11T15:12:58.844Z,46.50
2018-10-11T15:15:27.775Z,46.57
2018-10-11T15:17:56.741Z,46.76
2018-10-11T15:20:25.581Z,46.76
2018-10-11T15:22:54.470Z,46.85
2018-10-11T15:25:23.350Z,46.42
2018-10-11T15:27:52.260Z,46.30
2018-10-11T15:30:21.137Z,45.98
2018-10-11T15:32:50.052Z,46.11
2018-10-11T15:35:18.955Z,46.21
2018-10-11T15:37:48.060Z,46.13
2018-10-11T15:40:16.807Z,45.91
2018-10-11T15:42:45.839Z,45.42
2018-10-11T15:45:14.629Z,45.53
2018-10-11T15:47:43.603Z,45.61
2018-10-11T15:50:12.564Z,45.62
2018-10-11T15:52:41.666Z,45.99
2018-10-11T15:55:10.393Z,46.20
2018-10-11T15:57:39.418Z,46.14
2018-10-11T16:00:08.501Z,45.91
2018-10-11T16:02:37.383Z,46.16
2018-10-11T16:05:06.442Z,46.62
2018-10-11T16:07:35.792Z,46.75
2018-10-11T16:10:04.949Z,46.85
2018-10-11T16:12:33.879Z,46.60
2018-10-11T16:15:02.756Z,46.99
2018-10-11T16:17:31.692Z,47.09
2018-10-11T16:20:00.588Z,46.84
2018-10-11T16:22:29.529Z,47.18
2018-10-11T16:24:58.454Z,47.18
2018-10-11T16:27:27.427Z,47.51
2018-10-11T16:29:56.353Z,47.83
2018-10-11T16:32:25.282Z,48.02
2018-10-11T16:34:54.168Z,48.22
2018-10-11T16:37:23.416Z,48.12
2018-10-11T16:39:52.353Z,48.49
2018-10-11T16:42:21.271Z,48.85
2018-10-11T16:44:50.177Z,48.70
2018-10-11T16:47:19.060Z,48.97
2018-10-11T16:49:48.195Z,49.39
2018-10-11T16:52:16.871Z,49.29
2018-10-11T16:54:45.797Z,49.56
2018-10-11T16:57:15.937Z,49.76
2018-10-11T16:59:45.238Z,50.06
2018-10-11T17:02:14.345Z,50.24
2018-10-11T17:04:43.250Z,50.27
2018-10-11T17:07:12.153Z,50.47
2018-10-11T17:09:41.213Z,49.97
2018-10-11T17:12:10.005Z,49.99
2018-10-11T17:14:38.905Z,50.48
2018-10-11T17:17:07.948Z,50.42
2018-10-11T17:19:36.780Z,50.63
2018-10-11T17:22:05.760Z,50.62
2018-10-11T17:24:34.613Z,50.97
2018-10-11T17:27:03.516Z,51.16
2018-10-11T17:29:32.676Z,51.10
2018-10-11T17:32:01.502Z,51.42
2018-10-11T17:34:30.377Z,51.75
2018-10-11T17:36:59.274Z,51.97
2018-10-11T17:39:28.170Z,52.12
2018-10-11T17:41:57.084Z,51.77
2018-10-11T17:44:25.950Z,52.30
2018-10-11T17:46:54.896Z,52.80
2018-10-11T17:49:23.809Z,52.82
2018-10-11T17:51:52.689Z,53.00
2018-10-11T17:54:21.642Z,53.36
2018-10-11T17:56:50.630Z,53.13
2018-10-11T17:59:19.409Z,53.60
2018-10-11T18:01:48.297Z,53.81
2018-10-11T18:04:17.200Z,53.80
2018-10-11T18:06:46.150Z,53.95
2018-10-11T18:09:15.064Z,54.25
2018-10-11T18:11:43.958Z,54.43
2018-10-11T18:14:12.952Z,54.56
2018-10-11T18:16:41.834Z,54.71
2018-10-11T18:19:10.739Z,54.91
2018-10-11T18:21:39.711Z,54.89
2018-10-11T18:24:08.628Z,55.11
2018-10-11T18:26:37.612Z,55.18
2018-10-11T18:29:06.661Z,55.45
2018-10-11T18:31:35.556Z,55.75
2018-10-11T18:34:04.515Z,55.82
2018-10-11T18:36:33.416Z,55.30
2018-10-11T18:39:02.332Z,55.75
2018-10-11T18:41:31.243Z,55.77
2018-10-11T18:44:00.266Z,56.13
2018-10-11T18:46:29.148Z,55.56
2018-10-11T18:48:58.088Z,56.18
2018-10-11T18:51:26.994Z,56.54
2018-10-11T18:53:55.906Z,56.54
2018-10-11T18:56:24.802Z,55.99
2018-10-11T18:58:53.715Z,56.51
2018-10-11T19:01:22.633Z,56.79
2018-10-11T19:03:51.584Z,56.96
2018-10-11T19:06:20.486Z,57.10
2018-10-11T19:08:49.379Z,57.41
2018-10-11T19:11:18.257Z,57.56
2018-10-11T19:13:47.180Z,57.91
2018-10-11T19:16:16.067Z,57.77
2018-10-11T19:18:44.999Z,57.90
2018-10-11T19:21:14.175Z,58.10
2018-10-11T19:23:43.073Z,57.82
2018-10-11T19:26:11.989Z,58.08
2018-10-11T19:28:40.917Z,58.40
2018-10-11T19:31:09.820Z,58.52
2018-10-11T19:33:38.727Z,58.64
2018-10-11T19:36:07.991Z,59.01
2018-10-11T19:38:36.886Z,59.22
2018-10-11T19:41:05.837Z,59.15
2018-10-11T19:43:34.735Z,59.37
2018-10-11T19:46:03.656Z,59.07
2018-10-11T19:48:32.675Z,58.52
2018-10-11T19:51:01.525Z,59.20
2018-10-11T19:53:30.419Z,59.43
2018-10-11T19:55:59.357Z,59.61
2018-10-11T19:58:28.210Z,59.91
2018-10-11T20:00:57.106Z,59.97
2018-10-11T20:03:26.003Z,59.92
2018-10-11T20:05:54.878Z,60.13
2018-10-11T20:08:23.836Z,60.25
2018-10-11T20:10:52.695Z,60.61
2018-10-11T20:13:21.642Z,60.74
2018-10-11T20:15:50.543Z,60.88
2018-10-11T20:18:19.491Z,60.34
2018-10-11T20:20:48.355Z,60.86
2018-10-11T20:23:17.341Z,61.08
2018-10-11T20:25:46.282Z,60.94
2018-10-11T20:28:15.156Z,61.23
2018-10-11T20:30:44.065Z,61.31
2018-10-11T20:33:12.998Z,61.41
2018-10-11T20:35:41.903Z,60.98
2018-10-11T20:38:10.781Z,61.38
2018-10-11T20:40:39.689Z,61.49
2018-10-11T20:43:08.625Z,61.53
2018-10-11T20:45:37.552Z,61.73
2018-10-11T20:48:06.740Z,61.97
2018-10-11T20:50:35.720Z,62.06
2018-10-11T20:53:04.626Z,61.94
2018-10-11T20:55:33.555Z,62.14
2018-10-11T20:58:02.487Z,62.45
2018-10-11T21:00:31.366Z,62.34
2018-10-11T21:03:00.284Z,62.02
2018-10-11T21:05:29.255Z,62.39
2018-10-11T21:07:58.157Z,62.62
2018-10-11T21:10:27.047Z,62.48
2018-10-11T21:12:55.976Z,62.08
2018-10-11T21:15:24.889Z,61.72
2018-10-11T21:17:53.784Z,62.39
2018-10-11T21:20:22.716Z,62.60
2018-10-11T21:22:51.593Z,62.61
2018-10-11T21:25:20.516Z,62.87
2018-10-11T21:27:49.431Z,62.78
2018-10-11T21:30:18.340Z,62.90
2018-10-11T21:32:47.257Z,63.17
2018-10-11T21:35:16.160Z,63.23
2018-10-11T21:37:45.098Z,63.21
2018-10-11T21:40:14.004Z,62.90
2018-10-11T21:42:42.893Z,63.24
2018-10-11T21:45:11.834Z,63.48
2018-10-11T21:47:40.740Z,63.66
2018-10-11T21:50:09.785Z,63.80
2018-10-11T21:52:38.761Z,64.07
2018-10-11T21:55:07.640Z,64.08
2018-10-11T21:57:36.540Z,63.45
2018-10-11T22:00:06.524Z,64.27
2018-10-11T22:02:35.464Z,64.27
2018-10-11T22:05:04.409Z,64.22
2018-10-11T22:07:33.342Z,64.42
2018-10-11T22:10:02.311Z,64.52
2018-10-11T22:12:31.265Z,64.55
2018-10-11T22:15:00.423Z,64.62
2018-10-11T22:17:29.131Z,64.29
2018-10-11T22:19:58.051Z,65.01
2018-10-11T22:22:26.963Z,65.13
2018-10-11T22:24:55.860Z,65.27
2018-10-11T22:27:24.793Z,65.45
2018-10-11T22:29:53.762Z,65.49
2018-10-11T22:32:22.686Z,65.42
2018-10-11T22:34:51.631Z,65.53
2018-10-11T22:37:20.573Z,65.64
2018-10-11T22:39:49.505Z,66.10
2018-10-11T22:42:18.394Z,65.89
2018-10-11T22:44:47.316Z,66.37
2018-10-11T22:47:16.424Z,66.32
2018-10-11T22:49:45.351Z,66.26
2018-10-11T22:52:14.281Z,66.50
2018-10-11T22:54:43.206Z,66.70
2018-10-11T22:57:12.138Z,66.92
2018-10-11T22:59:41.122Z,67.04
2018-10-11T23:02:10.081Z,67.20
2018-10-11T23:04:39.012Z,67.33
2018-10-11T23:07:08.600Z,67.51
2018-10-11T23:09:37.529Z,67.19
2018-10-11T23:12:06.808Z,66.94
2018-10-11T23:14:35.804Z,67.47
2018-10-11T23:17:04.687Z,67.23
2018-10-11T23:19:33.617Z,67.26
2018-10-11T23:22:02.562Z,67.14
2018-10-11T23:24:31.497Z,67.64
2018-10-11T23:27:00.481Z,66.99
2018-10-11T23:29:29.413Z,67.51
2018-10-11T23:31:58.351Z,67.31
2018-10-11T23:34:27.327Z,67.16
2018-10-11T23:36:56.264Z,67.27
2018-10-11T23:39:25.210Z,67.15
2018-10-11T23:41:54.184Z,67.17
2018-10-11T23:44:23.118Z,66.19
2018-10-11T23:46:52.090Z,66.38
2018-10-11T23:49:21.028Z,66.25
2018-10-11T23:51:49.969Z,64.81
2018-10-11T23:54:18.906Z,64.17
2018-10-11T23:56:47.801Z,64.77
2018-10-11T23:59:16.798Z,64.61
